createdAt,value
2022-07-28T00:00:37.990Z,101568.81
2022-07-28T00:03:06.649Z,101567.69
2022-07-28T00:05:35.673Z,101570.19
2022-07-28T00:08:04.493Z,101568.94
2022-07-28T00:10:33.279Z,101568.72
2022-07-28T00:13:06.740Z,101574.41
2022-07-28T00:15:36.023Z,101564.66
2022-07-28T00:18:04.699Z,101558.50
2022-07-28T00:20:33.341Z,101563.53
2022-07-28T00:23:01.945Z,101569.03
2022-07-28T00:25:30.541Z,101564.25
2022-07-28T00:27:59.118Z,101566.50
2022-07-28T00:30:29.083Z,101560.94
2022-07-28T00:32:57.733Z,101559.91
2022-07-28T00:35:30.934Z,101557.22
2022-07-28T00:38:01.299Z,101553.25
2022-07-28T00:40:44.110Z,101552.03
2022-07-28T00:43:12.694Z,101559.03
2022-07-28T00:45:42.932Z,101552.00
2022-07-28T00:48:11.543Z,101542.91
2022-07-28T00:50:41.991Z,101543.56
2022-07-28T00:53:10.625Z,101544.56
2022-07-28T00:56:03.010Z,101544.72
2022-07-28T00:58:30.669Z,101537.75
2022-07-28T01:01:00.679Z,101542.72
2022-07-28T01:03:30.331Z,101531.56
2022-07-28T01:06:04.213Z,101525.41
2022-07-28T01:08:48.023Z,101535.88
2022-07-28T01:11:25.873Z,101537.03
2022-07-28T01:14:03.959Z,101534.34
2022-07-28T01:16:35.223Z,101538.41
2022-07-28T01:19:11.642Z,101541.97
2022-07-28T01:21:41.868Z,101539.72
2022-07-28T01:24:20.920Z,101532.25
2022-07-28T01:27:00.833Z,101536.00
2022-07-28T01:30:02.655Z,101532.50
2022-07-28T01:32:37.989Z,101539.00
2022-07-28T01:35:13.016Z,101538.66
2022-07-28T01:37:45.891Z,101530.81
2022-07-28T01:40:18.960Z,101527.28
2022-07-28T01:42:52.577Z,101531.72
2022-07-28T01:45:22.576Z,101537.94
2022-07-28T01:47:55.156Z,101524.19
2022-07-28T01:50:27.651Z,101516.94
2022-07-28T01:52:56.964Z,101510.19
2022-07-28T01:55:27.395Z,101509.84
2022-07-28T01:57:58.049Z,101520.88
2022-07-28T02:00:29.174Z,101516.97
2022-07-28T02:03:03.781Z,101513.88
2022-07-28T02:05:34.289Z,101515.50
2022-07-28T02:08:04.984Z,101505.84
2022-07-28T02:10:35.142Z,101511.06
2022-07-28T02:13:05.278Z,101503.56
2022-07-28T02:15:35.237Z,101505.28
2022-07-28T02:18:10.428Z,101506.81
2022-07-28T02:20:39.409Z,101505.69
2022-07-28T02:23:09.077Z,101515.31
2022-07-28T02:25:39.215Z,101505.47
2022-07-28T02:28:11.954Z,101498.69
2022-07-28T02:30:48.041Z,101498.34
2022-07-28T02:33:58.358Z,101497.63
2022-07-28T02:36:16.263Z,101489.50
2022-07-28T02:38:50.236Z,101489.00
2022-07-28T02:41:23.497Z,101476.56
2022-07-28T02:43:55.172Z,101480.66
2022-07-28T02:46:28.191Z,101479.13
2022-07-28T02:49:04.629Z,101480.38
2022-07-28T02:51:35.985Z,101475.56
2022-07-28T02:54:05.784Z,101480.72
2022-07-28T02:56:35.519Z,101487.66
2022-07-28T02:59:05.225Z,101486.78
2022-07-28T03:01:34.769Z,101481.53
2022-07-28T03:04:05.220Z,101492.22
2022-07-28T03:06:34.301Z,101478.81
2022-07-28T03:09:03.594Z,101480.56
2022-07-28T03:11:35.464Z,101479.25
2022-07-28T03:14:04.161Z,101485.91
2022-07-28T03:16:32.889Z,101472.22
2022-07-28T03:19:02.864Z,101476.63
2022-07-28T03:21:31.480Z,101476.03
2022-07-28T03:24:00.414Z,101476.69
2022-07-28T03:26:36.953Z,101476.09
2022-07-28T03:29:06.073Z,101468.81
2022-07-28T03:31:37.400Z,101479.25
2022-07-28T03:34:07.669Z,101484.13
2022-07-28T03:36:46.914Z,101492.03
2022-07-28T03:39:16.811Z,101486.91
2022-07-28T03:41:46.652Z,101480.91
2022-07-28T03:44:26.932Z,101483.94
2022-07-28T03:46:58.190Z,101486.72
2022-07-28T03:49:28.143Z,101480.56
2022-07-28T03:51:56.743Z,101483.19
2022-07-28T03:54:25.361Z,101484.47
2022-07-28T03:56:53.987Z,101485.63
2022-07-28T03:59:23.403Z,101489.59
2022-07-28T04:01:52.018Z,101487.50
2022-07-28T04:04:20.628Z,101492.66
2022-07-28T04:06:50.827Z,101486.13
2022-07-28T04:09:19.430Z,101486.31
2022-07-28T04:11:48.021Z,101481.56
2022-07-28T04:14:18.139Z,101486.91
2022-07-28T04:16:47.192Z,101484.63
2022-07-28T04:19:16.294Z,101482.03
2022-07-28T04:21:44.938Z,101477.03
2022-07-28T04:24:15.232Z,101480.41
2022-07-28T04:26:44.337Z,101479.56
2022-07-28T04:29:13.020Z,101491.88
2022-07-28T04:31:41.636Z,101483.81
2022-07-28T04:34:11.293Z,101472.84
2022-07-28T04:36:43.487Z,101479.28
2022-07-28T04:39:12.318Z,101481.13
2022-07-28T04:41:42.303Z,101480.72
2022-07-28T04:44:12.239Z,101475.59
2022-07-28T04:46:41.752Z,101484.56
2022-07-28T04:49:10.463Z,101473.34
2022-07-28T04:51:39.155Z,101485.09
2022-07-28T04:54:07.815Z,101485.75
2022-07-28T04:56:36.420Z,101491.72
2022-07-28T04:59:06.535Z,101498.13
2022-07-28T05:01:36.091Z,101500.91
2022-07-28T05:04:04.804Z,101488.78
2022-07-28T05:06:33.652Z,101485.03
2022-07-28T05:09:03.997Z,101489.34
2022-07-28T05:11:32.691Z,101484.63
2022-07-28T05:14:01.302Z,101491.34
2022-07-28T05:16:31.348Z,101492.72
2022-07-28T05:19:01.038Z,101490.75
2022-07-28T05:21:30.167Z,101490.41
2022-07-28T05:23:58.776Z,101495.41
2022-07-28T05:26:28.681Z,101491.31
2022-07-28T05:28:57.330Z,101486.69
2022-07-28T05:31:26.412Z,101484.69
2022-07-28T05:33:56.394Z,101487.16
2022-07-28T05:36:25.653Z,101485.09
2022-07-28T05:38:54.240Z,101488.63
2022-07-28T05:41:22.848Z,101483.44
2022-07-28T05:43:51.432Z,101483.41
2022-07-28T05:46:20.161Z,101483.69
2022-07-28T05:48:49.270Z,101487.59
2022-07-28T05:51:19.331Z,101481.03
2022-07-28T05:53:47.961Z,101483.53
2022-07-28T05:56:16.615Z,101487.97
2022-07-28T05:58:45.183Z,101484.00
2022-07-28T06:01:14.293Z,101481.97
2022-07-28T06:03:42.985Z,101480.84
2022-07-28T06:06:16.051Z,101477.63
2022-07-28T06:08:48.213Z,101478.78
2022-07-28T06:11:21.637Z,101479.81
2022-07-28T06:13:52.461Z,101476.50
2022-07-28T06:16:22.905Z,101482.50
2022-07-28T06:18:51.960Z,101487.94
2022-07-28T06:21:20.524Z,101485.19
2022-07-28T06:23:50.245Z,101480.84
2022-07-28T06:26:18.560Z,101483.34
2022-07-28T06:28:48.708Z,101476.63
2022-07-28T06:31:17.112Z,101482.47
2022-07-28T06:33:45.517Z,101484.88
2022-07-28T06:36:13.837Z,101487.06
2022-07-28T06:38:42.176Z,101487.66
2022-07-28T06:41:11.909Z,101484.44
2022-07-28T06:43:40.349Z,101482.31
2022-07-28T06:46:08.969Z,101479.84
2022-07-28T06:48:39.599Z,101482.63
2022-07-28T06:51:08.415Z,101489.56
2022-07-28T06:53:37.086Z,101479.38
2022-07-28T06:56:06.654Z,101489.91
2022-07-28T06:58:37.567Z,101487.91
2022-07-28T07:01:07.916Z,101484.41
2022-07-28T07:03:36.880Z,101482.56
2022-07-28T07:06:06.658Z,101477.16
2022-07-28T07:08:36.276Z,101478.06
2022-07-28T07:11:06.000Z,101481.41
2022-07-28T07:13:37.492Z,101480.69
2022-07-28T07:16:07.554Z,101473.59
2022-07-28T07:18:37.710Z,101476.16
2022-07-28T07:21:07.867Z,101472.09
2022-07-28T07:23:36.586Z,101472.22
2022-07-28T07:26:05.639Z,101463.88
2022-07-28T07:28:34.949Z,101464.41
2022-07-28T07:31:05.486Z,101466.06
2022-07-28T07:33:34.173Z,101455.84
2022-07-28T07:36:02.834Z,101465.66
2022-07-28T07:38:31.490Z,101464.13
2022-07-28T07:41:00.739Z,101466.63
2022-07-28T07:43:29.634Z,101463.31
2022-07-28T07:45:58.252Z,101464.09
2022-07-28T07:48:28.752Z,101466.97
2022-07-28T07:50:57.361Z,101462.16
2022-07-28T07:53:25.972Z,101462.59
2022-07-28T07:55:54.655Z,101460.53
2022-07-28T07:58:23.314Z,101463.72
2022-07-28T08:00:53.319Z,101461.53
2022-07-28T08:03:22.353Z,101466.34
2022-07-28T08:05:55.800Z,101459.94
2022-07-28T08:08:25.837Z,101470.84
2022-07-28T08:10:54.446Z,101466.28
2022-07-28T08:13:23.276Z,101469.84
2022-07-28T08:15:52.115Z,101474.34
2022-07-28T08:18:20.634Z,101467.78
2022-07-28T08:20:49.033Z,101465.19
2022-07-28T08:23:22.990Z,101457.44
2022-07-28T08:25:55.229Z,101458.03
2022-07-28T08:28:23.545Z,101458.00
2022-07-28T08:30:52.557Z,101465.50
2022-07-28T08:33:21.992Z,101463.69
2022-07-28T08:35:50.762Z,101459.94
2022-07-28T08:38:20.496Z,101457.25
2022-07-28T08:40:52.727Z,101449.06
2022-07-28T08:43:34.566Z,101454.44
2022-07-28T08:46:06.528Z,101454.50
2022-07-28T08:48:37.139Z,101448.25
2022-07-28T08:51:09.451Z,101447.56
2022-07-28T08:53:41.790Z,101433.16
2022-07-28T08:56:15.692Z,101441.41
2022-07-28T08:58:44.173Z,101442.31
2022-07-28T09:01:13.346Z,101441.03
2022-07-28T09:03:42.673Z,101437.31
2022-07-28T09:06:11.290Z,101431.63
2022-07-28T09:08:41.128Z,101437.94
2022-07-28T09:11:12.246Z,101425.28
2022-07-28T09:13:40.696Z,101430.16
2022-07-28T09:16:09.143Z,101431.22
2022-07-28T09:18:37.612Z,101430.34
2022-07-28T09:21:06.021Z,101423.09
2022-07-28T09:23:46.452Z,101434.28
2022-07-28T09:26:14.981Z,101430.00
2022-07-28T09:28:52.413Z,101424.84
2022-07-28T09:31:22.067Z,101426.34
2022-07-28T09:34:02.449Z,101422.91
2022-07-28T09:36:32.197Z,101429.53
2022-07-28T09:39:01.912Z,101420.50
2022-07-28T09:41:30.272Z,101422.50
2022-07-28T09:43:58.643Z,101414.41
2022-07-28T09:46:29.725Z,101419.38
2022-07-28T09:49:00.995Z,101427.28
2022-07-28T09:51:31.753Z,101415.34
2022-07-28T09:54:13.601Z,101422.72
2022-07-28T09:56:44.594Z,101414.97
2022-07-28T09:59:14.529Z,101413.56
2022-07-28T10:01:58.333Z,101422.16
2022-07-28T10:04:40.096Z,101416.59
2022-07-28T10:07:11.441Z,101411.41
2022-07-28T10:09:42.674Z,101411.06
2022-07-28T10:12:20.510Z,101406.88
2022-07-28T10:14:51.726Z,101416.66
2022-07-28T10:17:26.002Z,101405.13
2022-07-28T10:19:57.706Z,101395.06
2022-07-28T10:22:33.173Z,101398.09
2022-07-28T10:25:07.972Z,101390.19
2022-07-28T10:27:37.861Z,101388.81
2022-07-28T10:30:08.685Z,101387.09
2022-07-28T10:32:42.987Z,101378.41
2022-07-28T10:35:14.097Z,101388.44
2022-07-28T10:37:51.957Z,101383.34
2022-07-28T10:40:29.818Z,101389.47
2022-07-28T10:42:58.553Z,101384.16
2022-07-28T10:45:48.098Z,101374.53
2022-07-28T10:48:16.757Z,101375.28
2022-07-28T10:50:45.962Z,101380.69
2022-07-28T10:53:22.517Z,101377.22
2022-07-28T10:56:01.530Z,101376.50
2022-07-28T10:58:41.989Z,101374.63
2022-07-28T11:01:17.138Z,101367.06
2022-07-28T11:03:55.292Z,101358.53
2022-07-28T11:06:29.266Z,101363.56
2022-07-28T11:08:59.398Z,101370.34
2022-07-28T11:11:50.093Z,101361.88
2022-07-28T11:14:37.291Z,101362.63
2022-07-28T11:17:23.872Z,101354.50
2022-07-28T11:22:47.431Z,101350.41
2022-07-28T11:25:20.305Z,101344.72
2022-07-28T11:28:07.515Z,101354.00
2022-07-28T11:30:56.108Z,101346.19
2022-07-28T11:33:27.505Z,101343.03
2022-07-28T11:35:58.646Z,101345.47
2022-07-28T11:38:28.413Z,101330.38
2022-07-28T11:40:57.788Z,101335.16
2022-07-28T11:43:39.510Z,101337.28
2022-07-28T11:46:25.369Z,101332.16
2022-07-28T11:49:30.716Z,101327.78
2022-07-28T11:52:26.267Z,101316.63
2022-07-28T11:54:58.338Z,101318.06
2022-07-28T11:57:29.068Z,101316.78
2022-07-28T12:00:03.596Z,101319.25
2022-07-28T12:02:34.594Z,101318.88
2022-07-28T12:05:14.273Z,101311.31
2022-07-28T12:07:49.547Z,101307.72
2022-07-28T12:13:30.355Z,101307.81
2022-07-28T12:16:00.097Z,101309.91
2022-07-28T12:18:28.977Z,101301.69
2022-07-28T12:21:04.621Z,101308.88
2022-07-28T12:23:44.299Z,101304.91
2022-07-28T12:26:32.610Z,101305.81
2022-07-28T12:29:11.901Z,101308.31
2022-07-28T12:31:53.201Z,101294.50
2022-07-28T12:34:24.267Z,101286.69
2022-07-28T12:36:58.117Z,101287.44
2022-07-28T12:39:26.933Z,101282.94
2022-07-28T12:42:04.424Z,101284.88
2022-07-28T12:44:37.977Z,101286.31
2022-07-28T12:47:12.042Z,101278.94
2022-07-28T12:49:43.291Z,101273.56
2022-07-28T12:52:21.630Z,101277.97
2022-07-28T12:54:55.420Z,101278.16
2022-07-28T12:57:49.163Z,101273.47
2022-07-28T13:00:21.696Z,101283.69
2022-07-28T13:02:53.138Z,101273.28
2022-07-28T13:05:54.756Z,101270.38
2022-07-28T13:08:24.873Z,101269.50
2022-07-28T13:10:57.406Z,101262.94
2022-07-28T13:13:27.733Z,101265.19
2022-07-28T13:16:16.459Z,101268.25
2022-07-28T13:18:49.853Z,101267.16
2022-07-28T13:21:37.057Z,101267.22
2022-07-28T13:24:06.219Z,101259.19
2022-07-28T13:26:34.614Z,101266.66
2022-07-28T13:29:03.064Z,101254.97
2022-07-28T13:31:41.569Z,101259.53
2022-07-28T13:34:12.693Z,101247.78
2022-07-28T13:36:41.316Z,101251.97
2022-07-28T13:39:10.817Z,101241.16
2022-07-28T13:41:56.271Z,101238.88
2022-07-28T13:44:27.596Z,101235.91
2022-07-28T13:46:56.789Z,101234.25
2022-07-28T13:49:29.820Z,101235.25
2022-07-28T13:51:58.543Z,101226.91
2022-07-28T13:54:29.108Z,101227.34
2022-07-28T13:56:57.605Z,101229.53
2022-07-28T13:59:26.546Z,101226.47
2022-07-28T14:01:56.384Z,101217.91
2022-07-28T14:04:25.211Z,101222.28
2022-07-28T14:06:56.370Z,101227.28
2022-07-28T14:09:24.741Z,101229.41
2022-07-28T14:11:54.150Z,101222.28
2022-07-28T14:14:25.079Z,101223.34
2022-07-28T14:16:55.010Z,101226.50
2022-07-28T14:19:38.770Z,101209.13
2022-07-28T14:22:13.799Z,101222.28
2022-07-28T14:24:43.152Z,101226.47
2022-07-28T14:27:12.082Z,101232.50
2022-07-28T14:29:40.571Z,101223.75
2022-07-28T14:32:09.192Z,101225.00
2022-07-28T14:34:37.548Z,101226.28
2022-07-28T14:37:09.687Z,101208.44
2022-07-28T14:39:38.473Z,101206.38
2022-07-28T14:42:07.359Z,101215.22
2022-07-28T14:44:36.163Z,101222.03
2022-07-28T14:47:04.851Z,101216.72
2022-07-28T14:49:33.246Z,101213.91
2022-07-28T14:52:01.608Z,101212.06
2022-07-28T14:54:31.357Z,101211.41
2022-07-28T14:56:59.680Z,101215.88
2022-07-28T14:59:28.007Z,101216.81
2022-07-28T15:01:56.568Z,101204.19
2022-07-28T15:04:25.565Z,101202.97
2022-07-28T15:06:54.029Z,101209.00
2022-07-28T15:09:22.840Z,101207.72
2022-07-28T15:11:52.720Z,101202.44
2022-07-28T15:14:21.492Z,101191.41
2022-07-28T15:16:50.736Z,101207.28
2022-07-28T15:19:19.239Z,101197.78
2022-07-28T15:21:48.494Z,101206.44
2022-07-28T15:24:17.407Z,101197.19
2022-07-28T15:26:46.123Z,101196.44
2022-07-28T15:29:15.778Z,101191.94
2022-07-28T15:31:45.154Z,101190.81
2022-07-28T15:34:14.067Z,101195.06
2022-07-28T15:36:42.691Z,101191.03
2022-07-28T15:39:14.150Z,101188.16
2022-07-28T15:41:44.316Z,101187.56
2022-07-28T15:44:14.880Z,101189.13
2022-07-28T15:46:46.674Z,101182.63
2022-07-28T15:49:15.377Z,101185.91
2022-07-28T15:51:43.813Z,101190.97
2022-07-28T15:54:12.305Z,101191.13
2022-07-28T15:56:42.088Z,101185.91
2022-07-28T15:59:10.441Z,101188.09
2022-07-28T16:01:44.980Z,101175.81
2022-07-28T16:04:15.451Z,101186.47
2022-07-28T16:07:01.703Z,101181.88
2022-07-28T16:09:45.892Z,101186.00
2022-07-28T16:12:15.360Z,101183.50
2022-07-28T16:14:43.806Z,101180.22
2022-07-28T16:17:12.929Z,101176.28
2022-07-28T16:19:49.499Z,101177.19
2022-07-28T16:22:18.404Z,101176.13
2022-07-28T16:24:46.877Z,101174.81
2022-07-28T16:27:15.837Z,101177.75
2022-07-28T16:29:44.718Z,101183.91
2022-07-28T16:32:13.516Z,101172.69
2022-07-28T16:34:43.211Z,101170.75
2022-07-28T16:37:14.715Z,101173.19
2022-07-28T16:39:46.167Z,101165.47
2022-07-28T16:42:14.531Z,101176.44
2022-07-28T16:44:42.852Z,101168.66
2022-07-28T16:47:12.354Z,101165.56
2022-07-28T16:49:45.310Z,101166.97
2022-07-28T16:52:14.919Z,101166.47
2022-07-28T16:54:43.437Z,101157.31
2022-07-28T16:57:12.413Z,101167.53
2022-07-28T16:59:48.729Z,101168.50
2022-07-28T17:02:19.164Z,101175.31
2022-07-28T17:04:49.124Z,101168.09
2022-07-28T17:07:18.523Z,101175.94
2022-07-28T17:09:46.844Z,101166.66
2022-07-28T17:12:15.169Z,101164.03
2022-07-28T17:14:43.542Z,101163.78
2022-07-28T17:17:11.941Z,101170.50
2022-07-28T17:19:46.410Z,101167.03
2022-07-28T17:22:16.916Z,101166.72
2022-07-28T17:24:45.351Z,101164.66
2022-07-28T17:30:02.042Z,101162.84
2022-07-28T17:32:30.524Z,101171.97
2022-07-28T17:34:58.836Z,101167.44
2022-07-28T17:37:29.137Z,101168.41
2022-07-28T17:39:58.594Z,101174.78
2022-07-28T17:42:26.929Z,101171.97
2022-07-28T17:44:56.321Z,101171.53
2022-07-28T17:47:35.924Z,101167.03
2022-07-28T17:50:07.247Z,101169.25
2022-07-28T17:52:37.016Z,101165.69
2022-07-28T17:55:24.096Z,101170.56
2022-07-28T17:57:52.878Z,101162.69
2022-07-28T18:00:22.738Z,101166.53
2022-07-28T18:02:51.255Z,101165.69
2022-07-28T18:05:20.265Z,101172.69
2022-07-28T18:07:51.958Z,101167.97
2022-07-28T18:10:24.698Z,101162.97
2022-07-28T18:12:53.827Z,101167.28
2022-07-28T18:15:22.137Z,101173.13
2022-07-28T18:17:55.423Z,101183.97
2022-07-28T18:20:25.565Z,101167.72
2022-07-28T18:22:57.355Z,101175.19
2022-07-28T18:25:26.086Z,101170.91
2022-07-28T18:27:55.041Z,101169.31
2022-07-28T18:30:24.052Z,101174.94
2022-07-28T18:32:53.028Z,101176.00
2022-07-28T18:35:22.588Z,101168.22
2022-07-28T18:37:51.896Z,101161.34
2022-07-28T18:40:23.455Z,101160.81
2022-07-28T18:42:52.929Z,101160.31
2022-07-28T18:45:21.419Z,101172.16
2022-07-28T18:47:49.732Z,101166.81
2022-07-28T18:50:28.015Z,101163.25
2022-07-28T18:53:00.521Z,101166.34
2022-07-28T18:55:30.376Z,101163.50
2022-07-28T18:57:58.753Z,101173.88
2022-07-28T19:00:27.396Z,101159.97
2022-07-28T19:02:56.206Z,101171.19
2022-07-28T19:05:24.665Z,101162.41
2022-07-28T19:07:53.022Z,101158.78
2022-07-28T19:10:21.349Z,101159.75
2022-07-28T19:12:51.077Z,101164.25
2022-07-28T19:15:19.755Z,101165.22
2022-07-28T19:18:10.229Z,101167.69
2022-07-28T19:20:36.569Z,101164.22
2022-07-28T19:23:05.657Z,101168.06
2022-07-28T19:25:36.209Z,101169.09
2022-07-28T19:28:06.823Z,101181.69
2022-07-28T19:30:35.374Z,101175.44
2022-07-28T19:33:04.396Z,101181.34
2022-07-28T19:35:32.680Z,101182.28
2022-07-28T19:38:02.716Z,101187.47
2022-07-28T19:40:32.211Z,101186.50
2022-07-28T19:43:01.100Z,101200.91
2022-07-28T19:45:30.784Z,101197.41
2022-07-28T19:47:59.069Z,101202.22
2022-07-28T19:50:27.387Z,101202.16
2022-07-28T19:52:56.616Z,101208.56
2022-07-28T19:55:26.928Z,101202.28
2022-07-28T19:57:59.204Z,101214.72
2022-07-28T20:00:27.720Z,101206.50
2022-07-28T20:02:57.460Z,101214.03
2022-07-28T20:05:26.185Z,101215.13
2022-07-28T20:07:54.579Z,101217.94
2022-07-28T20:10:23.232Z,101215.38
2022-07-28T20:12:51.545Z,101216.63
2022-07-28T20:15:19.881Z,101224.78
2022-07-28T20:17:48.163Z,101217.88
2022-07-28T20:20:17.959Z,101215.81
2022-07-28T20:22:47.794Z,101224.66
2022-07-28T20:25:16.657Z,101218.78
2022-07-28T20:27:45.407Z,101223.00
2022-07-28T20:30:15.238Z,101226.38
2022-07-28T20:32:45.066Z,101224.50
2022-07-28T20:35:14.299Z,101234.31
2022-07-28T20:37:44.017Z,101236.59
2022-07-28T20:40:12.880Z,101241.22
2022-07-28T20:42:41.297Z,101234.44
2022-07-28T20:45:10.352Z,101234.81
2022-07-28T20:47:38.774Z,101232.06
2022-07-28T20:50:08.473Z,101235.94
2022-07-28T20:52:36.784Z,101230.75
2022-07-28T20:55:07.643Z,101231.22
2022-07-28T20:57:36.205Z,101232.47
2022-07-28T21:00:06.304Z,101228.88
2022-07-28T21:02:34.907Z,101233.66
2022-07-28T21:05:03.298Z,101243.06
2022-07-28T21:08:05.493Z,101234.94
2022-07-28T21:10:21.295Z,101238.31
2022-07-28T21:12:49.593Z,101229.97
2022-07-28T21:15:17.905Z,101240.28
2022-07-28T21:17:46.193Z,101235.16
2022-07-28T21:20:14.969Z,101229.44
2022-07-28T21:22:43.261Z,101234.13
2022-07-28T21:25:12.094Z,101234.09
2022-07-28T21:27:59.468Z,101227.97
2022-07-28T21:30:28.344Z,101224.25
2022-07-28T21:32:56.905Z,101227.94
2022-07-28T21:35:25.549Z,101220.25
2022-07-28T21:37:54.199Z,101221.72
2022-07-28T21:40:22.598Z,101224.72
2022-07-28T21:42:52.687Z,101229.34
2022-07-28T21:45:21.359Z,101227.06
2022-07-28T21:47:49.812Z,101221.16
2022-07-28T21:50:18.337Z,101220.66
2022-07-28T21:52:46.635Z,101222.03
2022-07-28T21:55:14.977Z,101227.22
2022-07-28T21:57:43.285Z,101233.88
2022-07-28T22:00:14.530Z,101232.25
2022-07-28T22:02:42.872Z,101235.59
2022-07-28T22:05:11.790Z,101231.38
2022-07-28T22:07:40.407Z,101230.16
2022-07-28T22:10:09.803Z,101226.69
2022-07-28T22:12:38.263Z,101221.88
2022-07-28T22:15:08.393Z,101228.31
2022-07-28T22:17:38.039Z,101226.44
2022-07-28T22:20:08.140Z,101234.53
2022-07-28T22:22:36.601Z,101230.63
2022-07-28T22:25:05.378Z,101229.50
2022-07-28T22:27:33.691Z,101224.16
2022-07-28T22:30:02.932Z,101222.94
2022-07-28T22:32:31.275Z,101218.72
2022-07-28T22:35:01.059Z,101226.22
2022-07-28T22:37:29.619Z,101229.09
2022-07-28T22:39:57.929Z,101225.91
2022-07-28T22:42:26.269Z,101232.41
2022-07-28T22:44:54.957Z,101227.59
2022-07-28T22:47:23.298Z,101231.09
2022-07-28T22:49:53.780Z,101228.47
2022-07-28T22:52:27.340Z,101235.28
2022-07-28T22:54:55.990Z,101228.06
2022-07-28T22:57:26.150Z,101233.97
2022-07-28T22:59:55.044Z,101233.16
2022-07-28T23:02:25.913Z,101228.53
2022-07-28T23:04:54.848Z,101222.06
2022-07-28T23:07:25.738Z,101222.78
2022-07-28T23:10:13.317Z,101224.16
2022-07-28T23:12:41.772Z,101213.03
2022-07-28T23:15:10.510Z,101215.91
2022-07-28T23:17:38.878Z,101212.88
2022-07-28T23:20:08.280Z,101211.72
2022-07-28T23:22:36.598Z,101203.22
2022-07-28T23:25:05.639Z,101189.78
2022-07-28T23:27:35.357Z,101201.50
2022-07-28T23:30:03.675Z,101210.31
2022-07-28T23:32:32.022Z,101214.41
2022-07-28T23:35:00.335Z,101207.75
2022-07-28T23:37:28.887Z,101210.50
2022-07-28T23:39:57.169Z,101208.03
2022-07-28T23:42:25.470Z,101208.00
2022-07-28T23:44:55.093Z,101208.44
2022-07-28T23:47:23.394Z,101210.75
2022-07-28T23:49:51.691Z,101211.97
2022-07-28T23:52:20.090Z,101205.38
2022-07-28T23:54:48.370Z,101208.44
2022-07-28T23:57:16.708Z,101205.28
2022-07-28T23:59:45.008Z,101199.31
